createdAt,value
2023-05-01T00:01:58.606Z,60.65
2023-05-01T00:04:25.116Z,60.14
2023-05-01T00:06:51.642Z,60.56
2023-05-01T00:09:18.186Z,59.88
2023-05-01T00:11:44.598Z,59.80
2023-05-01T00:14:11.007Z,59.18
2023-05-01T00:16:37.436Z,59.01
2023-05-01T00:19:03.881Z,58.70
2023-05-01T00:21:30.305Z,58.96
2023-05-01T00:23:56.833Z,58.35
2023-05-01T00:26:23.233Z,58.28
2023-05-01T00:28:49.678Z,58.21
2023-05-01T00:31:16.159Z,58.04
2023-05-01T00:33:42.552Z,57.75
2023-05-01T00:36:08.944Z,57.99
2023-05-01T00:38:35.341Z,58.07
2023-05-01T00:41:01.719Z,58.05
2023-05-01T00:43:28.119Z,58.88
2023-05-01T00:45:54.574Z,59.17
2023-05-01T00:48:21.037Z,59.38
2023-05-01T00:50:47.442Z,58.91
2023-05-01T00:53:13.855Z,59.10
2023-05-01T00:55:40.250Z,59.11
2023-05-01T00:58:06.626Z,59.33
2023-05-01T01:00:33.113Z,59.33
2023-05-01T01:02:59.521Z,59.07
2023-05-01T01:05:25.964Z,59.23
2023-05-01T01:07:52.374Z,59.18
2023-05-01T01:10:18.748Z,59.28
2023-05-01T01:12:45.181Z,59.23
2023-05-01T01:15:11.586Z,59.71
2023-05-01T01:17:38.047Z,59.64
2023-05-01T01:20:04.552Z,59.41
2023-05-01T01:22:30.947Z,59.33
2023-05-01T01:24:57.413Z,59.07
2023-05-01T01:27:23.874Z,59.28
2023-05-01T01:29:50.325Z,59.71
2023-05-01T01:32:16.700Z,59.44
2023-05-01T01:34:43.166Z,59.81
2023-05-01T01:37:09.556Z,59.68
2023-05-01T01:39:35.970Z,59.69
2023-05-01T01:42:02.390Z,59.50
2023-05-01T01:44:28.853Z,59.76
2023-05-01T01:46:55.212Z,59.77
2023-05-01T01:49:21.663Z,60.28
2023-05-01T01:51:48.094Z,60.68
2023-05-01T01:54:14.546Z,60.36
2023-05-01T01:56:41.171Z,60.74
2023-05-01T01:59:07.591Z,61.31
2023-05-01T02:01:34.035Z,62.09
2023-05-01T02:04:00.566Z,63.21
2023-05-01T02:06:27.175Z,62.45
2023-05-01T02:08:53.686Z,61.92
2023-05-01T02:11:20.106Z,61.66
2023-05-01T02:13:46.516Z,62.26
2023-05-01T02:16:12.989Z,62.92
2023-05-01T02:18:39.428Z,62.74
2023-05-01T02:21:05.813Z,62.51
2023-05-01T02:23:32.239Z,62.63
2023-05-01T02:25:58.661Z,62.47
2023-05-01T02:28:25.036Z,62.09
2023-05-01T02:30:51.457Z,63.11
2023-05-01T02:33:17.865Z,62.02
2023-05-01T02:35:44.236Z,61.80
2023-05-01T02:38:10.634Z,61.89
2023-05-01T02:40:37.093Z,61.53
2023-05-01T02:43:03.516Z,61.30
2023-05-01T02:45:30.274Z,61.14
2023-05-01T02:47:56.735Z,61.49
2023-05-01T02:50:23.134Z,61.24
2023-05-01T02:52:49.694Z,61.62
2023-05-01T02:55:16.115Z,61.40
2023-05-01T02:57:42.502Z,61.42
2023-05-01T03:00:08.927Z,61.55
2023-05-01T03:02:35.337Z,61.17
2023-05-01T03:05:01.798Z,61.66
2023-05-01T03:07:28.216Z,61.24
2023-05-01T03:09:54.828Z,61.09
2023-05-01T03:12:21.422Z,61.73
2023-05-01T03:14:47.798Z,62.57
2023-05-01T03:17:14.199Z,62.78
2023-05-01T03:19:40.589Z,63.91
2023-05-01T03:22:07.021Z,64.00
2023-05-01T03:24:33.410Z,64.09
2023-05-01T03:26:59.820Z,63.58
2023-05-01T03:29:26.233Z,62.82
2023-05-01T03:31:52.727Z,63.02
2023-05-01T03:34:19.115Z,62.55
2023-05-01T03:36:45.519Z,62.29
2023-05-01T03:39:11.985Z,62.34
2023-05-01T03:41:38.412Z,62.22
2023-05-01T03:44:04.834Z,62.66
2023-05-01T03:46:31.470Z,63.04
2023-05-01T03:48:57.928Z,63.22
2023-05-01T03:51:24.349Z,62.42
2023-05-01T03:53:50.786Z,62.29
2023-05-01T03:56:17.198Z,62.58
2023-05-01T03:58:43.729Z,62.84
2023-05-01T04:01:10.094Z,62.26
2023-05-01T04:03:36.629Z,62.56
2023-05-01T04:06:03.096Z,62.36
2023-05-01T04:08:29.487Z,62.62
2023-05-01T04:10:55.924Z,63.46
2023-05-01T04:13:22.433Z,64.45
2023-05-01T04:15:48.959Z,65.17
2023-05-01T04:18:15.461Z,66.49
2023-05-01T04:20:41.903Z,66.29
2023-05-01T04:23:08.295Z,66.41
2023-05-01T04:25:34.807Z,66.21
2023-05-01T04:28:01.233Z,66.96
2023-05-01T04:30:27.630Z,65.66
2023-05-01T04:32:54.159Z,67.02
2023-05-01T04:35:20.621Z,67.33
2023-05-01T04:37:46.997Z,66.89
2023-05-01T04:40:13.446Z,67.49
2023-05-01T04:42:39.812Z,67.53
2023-05-01T04:45:06.236Z,67.87
2023-05-01T04:47:32.663Z,67.53
2023-05-01T04:49:59.175Z,68.15
2023-05-01T04:52:28.614Z,68.05
2023-05-01T04:54:55.040Z,67.32
2023-05-01T04:57:24.580Z,65.59
2023-05-01T04:59:51.007Z,65.47
2023-05-01T05:02:17.398Z,66.32
2023-05-01T05:04:43.831Z,66.56
2023-05-01T05:07:12.365Z,67.13
2023-05-01T05:09:38.785Z,66.97
2023-05-01T05:12:05.402Z,67.94
2023-05-01T05:14:31.810Z,67.61
2023-05-01T05:16:58.493Z,66.62
2023-05-01T05:19:25.146Z,66.37
2023-05-01T05:21:51.789Z,66.40
2023-05-01T05:24:18.230Z,66.41
2023-05-01T05:26:44.658Z,66.15
2023-05-01T05:29:12.282Z,66.83
2023-05-01T05:31:40.658Z,65.93
2023-05-01T05:34:07.138Z,66.04
2023-05-01T05:36:34.806Z,65.19
2023-05-01T05:39:01.169Z,64.70
2023-05-01T05:41:27.710Z,64.77
2023-05-01T05:43:54.300Z,64.04
2023-05-01T05:46:20.819Z,64.09
2023-05-01T05:48:47.379Z,64.65
2023-05-01T05:51:13.857Z,64.91
2023-05-01T05:53:40.316Z,65.84
2023-05-01T05:56:06.803Z,66.91
2023-05-01T05:58:33.232Z,66.96
2023-05-01T06:00:59.843Z,66.78
2023-05-01T06:03:26.618Z,67.93
2023-05-01T06:05:53.491Z,68.97
2023-05-01T06:08:21.737Z,69.71
2023-05-01T06:10:48.311Z,68.94
2023-05-01T06:13:15.449Z,68.29
2023-05-01T06:15:42.174Z,68.09
2023-05-01T06:18:08.898Z,67.74
2023-05-01T06:20:35.663Z,68.03
2023-05-01T06:23:02.048Z,66.16
2023-05-01T06:25:28.481Z,64.99
2023-05-01T06:27:55.048Z,64.96
2023-05-01T06:30:21.443Z,64.95
2023-05-01T06:32:47.894Z,64.33
2023-05-01T06:35:14.365Z,63.97
2023-05-01T06:37:45.044Z,63.33
2023-05-01T06:40:11.581Z,63.56
2023-05-01T06:42:39.225Z,66.08
2023-05-01T06:45:05.805Z,67.19
2023-05-01T06:47:33.526Z,67.54
2023-05-01T06:50:00.492Z,68.28
2023-05-01T06:52:27.898Z,68.96
2023-05-01T06:54:54.299Z,67.35
2023-05-01T06:57:20.877Z,66.98
2023-05-01T06:59:47.275Z,67.92
2023-05-01T07:02:13.742Z,68.19
2023-05-01T07:04:40.198Z,66.41
2023-05-01T07:07:06.595Z,67.04
2023-05-01T07:09:33.289Z,66.22
2023-05-01T07:12:00.520Z,64.67
2023-05-01T07:14:27.328Z,63.73
2023-05-01T07:16:56.687Z,63.19
2023-05-01T07:19:23.313Z,62.38
2023-05-01T07:21:49.756Z,62.78
2023-05-01T07:24:16.233Z,62.38
2023-05-01T07:26:42.668Z,63.85
2023-05-01T07:29:09.369Z,64.50
2023-05-01T07:31:35.865Z,63.79
2023-05-01T07:34:02.497Z,63.63
2023-05-01T07:36:30.196Z,65.51
2023-05-01T07:38:58.643Z,66.34
2023-05-01T07:41:25.106Z,65.07
2023-05-01T07:43:51.584Z,66.29
2023-05-01T07:46:18.176Z,65.63
2023-05-01T07:48:45.084Z,64.89
2023-05-01T07:51:11.844Z,63.02
2023-05-01T07:53:38.326Z,61.28
2023-05-01T07:56:04.741Z,61.13
2023-05-01T07:58:31.222Z,60.81
2023-05-01T08:00:57.644Z,59.83
2023-05-01T08:03:24.302Z,59.76
2023-05-01T08:05:51.029Z,59.71
2023-05-01T08:08:17.630Z,58.39
2023-05-01T08:10:46.393Z,59.12
2023-05-01T08:13:12.773Z,57.82
2023-05-01T08:15:39.464Z,57.89
2023-05-01T08:18:09.339Z,57.35
2023-05-01T08:20:35.796Z,57.19
2023-05-01T08:23:02.244Z,56.01
2023-05-01T08:25:28.750Z,56.08
2023-05-01T08:27:55.138Z,54.01
2023-05-01T08:30:21.593Z,54.40
2023-05-01T08:32:48.287Z,54.18
2023-05-01T08:35:14.726Z,54.85
2023-05-01T08:37:43.850Z,54.94
2023-05-01T08:40:10.250Z,53.94
2023-05-01T08:42:38.451Z,54.03
2023-05-01T08:45:04.866Z,53.05
2023-05-01T08:47:31.387Z,52.06
2023-05-01T08:49:58.169Z,52.57
2023-05-01T08:52:25.000Z,53.25
2023-05-01T08:54:54.261Z,52.90
2023-05-01T08:57:20.938Z,53.10
2023-05-01T08:59:47.402Z,53.16
2023-05-01T09:02:13.857Z,54.30
2023-05-01T09:04:40.316Z,54.39
2023-05-01T09:07:06.822Z,54.85
2023-05-01T09:09:33.368Z,54.52
2023-05-01T09:11:59.789Z,54.73
2023-05-01T09:14:26.274Z,54.68
2023-05-01T09:16:52.751Z,55.09
2023-05-01T09:19:19.198Z,54.36
2023-05-01T09:21:45.740Z,55.28
2023-05-01T09:24:12.211Z,54.80
2023-05-01T09:26:38.659Z,55.50
2023-05-01T09:29:05.184Z,54.25
2023-05-01T09:31:31.834Z,54.26
2023-05-01T09:33:58.265Z,53.95
2023-05-01T09:36:24.654Z,54.13
2023-05-01T09:38:51.046Z,53.74
2023-05-01T09:41:17.479Z,52.13
2023-05-01T09:43:43.870Z,51.94
2023-05-01T09:46:10.307Z,51.24
2023-05-01T09:48:36.813Z,51.35
2023-05-01T09:51:03.264Z,50.96
2023-05-01T09:53:29.755Z,50.95
2023-05-01T09:55:56.151Z,50.88
2023-05-01T09:58:22.542Z,51.45
2023-05-01T10:00:49.052Z,50.23
2023-05-01T10:03:15.573Z,49.62
2023-05-01T10:05:45.280Z,48.76
2023-05-01T10:08:11.726Z,49.41
2023-05-01T10:10:38.156Z,49.73
2023-05-01T10:13:04.591Z,49.48
2023-05-01T10:15:30.997Z,50.53
2023-05-01T10:17:57.472Z,50.31
2023-05-01T10:20:24.029Z,50.31
2023-05-01T10:22:50.420Z,51.06
2023-05-01T10:25:16.873Z,50.02
2023-05-01T10:27:43.273Z,50.26
2023-05-01T10:30:09.731Z,50.14
2023-05-01T10:32:36.164Z,49.37
2023-05-01T10:35:02.789Z,48.09
2023-05-01T10:37:29.208Z,47.67
2023-05-01T10:39:55.654Z,48.38
2023-05-01T10:42:22.066Z,48.08
2023-05-01T10:44:48.528Z,48.19
2023-05-01T10:47:15.007Z,47.29
2023-05-01T10:49:41.362Z,48.35
2023-05-01T10:52:08.027Z,47.72
2023-05-01T10:54:34.403Z,47.53
2023-05-01T10:57:03.299Z,46.82
2023-05-01T10:59:29.741Z,46.82
2023-05-01T11:01:56.257Z,46.18
2023-05-01T11:04:22.758Z,45.81
2023-05-01T11:06:49.362Z,44.89
2023-05-01T11:09:17.657Z,44.25
2023-05-01T11:11:44.208Z,43.14
2023-05-01T11:14:12.844Z,44.02
2023-05-01T11:16:39.441Z,45.53
2023-05-01T11:19:05.899Z,45.82
2023-05-01T11:21:32.549Z,42.93
2023-05-01T11:23:58.977Z,43.37
2023-05-01T11:26:26.648Z,43.01
2023-05-01T11:28:53.204Z,42.05
2023-05-01T11:31:21.958Z,41.03
2023-05-01T11:33:48.362Z,41.29
2023-05-01T11:36:18.040Z,42.00
2023-05-01T11:38:44.544Z,41.09
2023-05-01T11:41:10.957Z,40.83
2023-05-01T11:43:37.464Z,40.75
2023-05-01T11:46:04.009Z,41.05
2023-05-01T11:48:30.647Z,40.78
2023-05-01T11:50:57.135Z,41.03
2023-05-01T11:53:23.643Z,40.42
2023-05-01T11:55:50.227Z,40.34
2023-05-01T11:58:16.613Z,40.00
2023-05-01T12:00:43.063Z,40.49
2023-05-01T12:03:09.665Z,40.51
2023-05-01T12:05:36.156Z,41.58
2023-05-01T12:08:04.484Z,42.23
2023-05-01T12:10:30.968Z,43.34
2023-05-01T12:12:57.369Z,43.31
2023-05-01T12:15:26.827Z,44.05
2023-05-01T12:17:53.255Z,44.60
2023-05-01T12:20:22.521Z,44.71
2023-05-01T12:22:49.033Z,45.47
2023-05-01T12:25:15.486Z,45.87
2023-05-01T12:27:42.084Z,45.66
2023-05-01T12:30:08.561Z,45.41
2023-05-01T12:32:35.158Z,44.62
2023-05-01T12:35:01.902Z,45.06
2023-05-01T12:37:28.419Z,45.52
2023-05-01T12:39:54.978Z,44.73
2023-05-01T12:42:21.373Z,44.63
2023-05-01T12:44:48.173Z,44.53
2023-05-01T12:47:15.752Z,44.51
2023-05-01T12:49:42.301Z,43.80
2023-05-01T12:52:08.878Z,45.12
2023-05-01T12:54:35.473Z,43.88
2023-05-01T12:57:01.912Z,43.76
2023-05-01T12:59:28.338Z,42.21
2023-05-01T13:01:55.141Z,41.55
2023-05-01T13:04:21.974Z,40.12
2023-05-01T13:06:48.417Z,39.42
2023-05-01T13:09:17.018Z,39.29
2023-05-01T13:11:43.462Z,39.30
2023-05-01T13:14:12.981Z,39.60
2023-05-01T13:16:39.476Z,39.52
2023-05-01T13:19:05.949Z,38.94
2023-05-01T13:21:32.327Z,38.18
2023-05-01T13:23:58.938Z,38.35
2023-05-01T13:26:25.344Z,37.83
2023-05-01T13:28:52.052Z,36.82
2023-05-01T13:31:18.537Z,36.09
2023-05-01T13:33:44.931Z,36.37
2023-05-01T13:36:22.179Z,36.17
2023-05-01T13:38:52.308Z,36.27
2023-05-01T13:41:18.703Z,36.18
2023-05-01T13:43:45.111Z,35.97
2023-05-01T13:46:11.717Z,37.45
2023-05-01T13:48:38.171Z,37.87
2023-05-01T13:51:04.567Z,38.70
2023-05-01T13:53:31.285Z,40.12
2023-05-01T13:55:57.700Z,40.04
2023-05-01T13:58:24.084Z,39.81
2023-05-01T14:00:50.580Z,40.28
2023-05-01T14:03:17.183Z,41.15
2023-05-01T14:05:43.699Z,42.01
2023-05-01T14:08:10.155Z,42.94
2023-05-01T14:10:36.625Z,42.72
2023-05-01T14:13:03.047Z,42.53
2023-05-01T14:15:29.703Z,42.58
2023-05-01T14:17:56.425Z,42.48
2023-05-01T14:20:22.956Z,42.78
2023-05-01T14:22:49.409Z,43.25
2023-05-01T14:25:15.827Z,43.66
2023-05-01T14:27:42.255Z,44.49
2023-05-01T14:30:08.653Z,43.38
2023-05-01T14:32:35.176Z,44.08
2023-05-01T14:35:01.705Z,43.85
2023-05-01T14:37:28.236Z,43.67
2023-05-01T14:39:54.764Z,44.39
2023-05-01T14:42:21.203Z,45.25
2023-05-01T14:44:47.594Z,44.51
2023-05-01T14:47:14.083Z,44.15
2023-05-01T14:49:40.598Z,44.14
2023-05-01T14:52:08.267Z,42.76
2023-05-01T14:54:35.748Z,43.30
2023-05-01T14:57:02.135Z,43.12
2023-05-01T14:59:28.553Z,42.52
2023-05-01T15:01:55.072Z,42.35
2023-05-01T15:04:21.584Z,42.05
2023-05-01T15:06:48.228Z,41.59
2023-05-01T15:09:14.753Z,42.18
2023-05-01T15:11:41.302Z,42.58
2023-05-01T15:14:07.788Z,41.86
2023-05-01T15:16:34.236Z,42.00
2023-05-01T15:19:00.972Z,41.91
2023-05-01T15:21:27.422Z,42.46
2023-05-01T15:23:53.967Z,42.81
2023-05-01T15:26:20.435Z,42.95
2023-05-01T15:28:46.949Z,43.67
2023-05-01T15:31:13.387Z,44.57
2023-05-01T15:33:39.831Z,46.63
2023-05-01T15:36:06.403Z,42.16
2023-05-01T15:38:32.926Z,39.00
2023-05-01T15:40:59.385Z,36.78
2023-05-01T15:43:25.789Z,37.32
2023-05-01T15:45:52.305Z,34.34
2023-05-01T15:48:18.964Z,33.12
2023-05-01T15:50:47.441Z,32.45
2023-05-01T15:53:15.277Z,33.45
2023-05-01T15:55:41.670Z,32.62
2023-05-01T15:58:08.108Z,32.55
2023-05-01T16:00:34.513Z,32.20
2023-05-01T16:03:01.031Z,29.86
2023-05-01T16:05:27.467Z,30.40
2023-05-01T16:07:53.897Z,31.72
2023-05-01T16:10:20.302Z,33.45
2023-05-01T16:12:46.669Z,33.30
2023-05-01T16:15:13.175Z,33.91
2023-05-01T16:17:39.568Z,33.00
2023-05-01T16:20:05.974Z,32.82
2023-05-01T16:22:32.409Z,32.39
2023-05-01T16:24:58.796Z,32.80
2023-05-01T16:27:25.193Z,32.45
2023-05-01T16:29:51.641Z,34.23
2023-05-01T16:32:18.176Z,35.20
2023-05-01T16:34:44.634Z,34.73
2023-05-01T16:37:11.262Z,35.11
2023-05-01T16:39:37.703Z,36.08
2023-05-01T16:42:04.117Z,35.99
2023-05-01T16:44:30.680Z,37.00
2023-05-01T16:46:57.270Z,37.05
2023-05-01T16:49:23.713Z,37.90
2023-05-01T16:51:50.075Z,38.88
2023-05-01T16:54:16.474Z,38.84
2023-05-01T16:56:42.957Z,38.92
2023-05-01T16:59:09.416Z,39.75
2023-05-01T17:01:35.868Z,38.07
2023-05-01T17:04:02.432Z,38.37
2023-05-01T17:06:28.919Z,39.05
2023-05-01T17:08:55.344Z,39.50
2023-05-01T17:11:21.794Z,39.72
2023-05-01T17:13:48.259Z,41.40
2023-05-01T17:16:14.817Z,41.18
2023-05-01T17:18:41.360Z,41.80
2023-05-01T17:21:07.768Z,42.41
2023-05-01T17:23:34.225Z,43.52
2023-05-01T17:26:00.667Z,43.55
2023-05-01T17:28:27.067Z,42.82
2023-05-01T17:30:53.533Z,42.90
2023-05-01T17:33:20.004Z,42.55
2023-05-01T17:35:46.605Z,43.01
2023-05-01T17:38:13.190Z,42.25
2023-05-01T17:40:39.578Z,41.87
2023-05-01T17:43:06.049Z,42.82
2023-05-01T17:45:32.656Z,42.95
2023-05-01T17:47:59.106Z,42.42
2023-05-01T17:50:25.545Z,41.99
2023-05-01T17:52:51.945Z,42.92
2023-05-01T17:55:18.678Z,43.19
2023-05-01T17:57:45.188Z,42.35
2023-05-01T18:00:11.582Z,44.27
2023-05-01T18:02:38.120Z,45.39
2023-05-01T18:05:05.000Z,44.91
2023-05-01T18:07:31.723Z,45.50
2023-05-01T18:09:58.466Z,45.32
2023-05-01T18:12:25.153Z,46.23
2023-05-01T18:14:51.634Z,46.55
2023-05-01T18:17:18.195Z,46.66
2023-05-01T18:19:44.641Z,46.61
2023-05-01T18:22:10.998Z,45.62
2023-05-01T18:24:37.407Z,45.64
2023-05-01T18:27:03.781Z,46.00
2023-05-01T18:29:30.190Z,46.04
2023-05-01T18:31:56.684Z,46.46
2023-05-01T18:34:23.211Z,46.82
2023-05-01T18:36:49.667Z,47.07
2023-05-01T18:39:16.091Z,47.21
2023-05-01T18:41:42.553Z,48.07
2023-05-01T18:44:09.008Z,48.83
2023-05-01T18:46:35.575Z,48.72
2023-05-01T18:49:02.150Z,49.34
2023-05-01T18:51:28.669Z,49.45
2023-05-01T18:53:55.096Z,49.57
2023-05-01T18:56:21.478Z,50.13
2023-05-01T18:58:48.196Z,50.18
2023-05-01T19:01:14.646Z,50.34
2023-05-01T19:03:41.219Z,50.51
2023-05-01T19:06:07.858Z,50.97
2023-05-01T19:08:34.322Z,51.17
2023-05-01T19:11:00.792Z,51.19
2023-05-01T19:13:27.300Z,51.49
2023-05-01T19:15:53.784Z,52.34
2023-05-01T19:18:20.267Z,53.02
2023-05-01T19:20:46.669Z,53.80
2023-05-01T19:23:13.448Z,54.62
2023-05-01T19:25:39.972Z,56.79
2023-05-01T19:28:06.439Z,54.06
2023-05-01T19:30:32.949Z,54.29
2023-05-01T19:32:59.447Z,53.23
2023-05-01T19:35:26.022Z,52.67
2023-05-01T19:37:52.495Z,51.02
2023-05-01T19:40:19.003Z,52.89
2023-05-01T19:42:45.410Z,53.14
2023-05-01T19:45:11.977Z,54.94
2023-05-01T19:47:38.619Z,53.30
2023-05-01T19:50:05.245Z,54.56
2023-05-01T19:52:31.653Z,54.17
2023-05-01T19:54:58.153Z,53.88
2023-05-01T19:57:24.803Z,54.46
2023-05-01T19:59:51.287Z,54.57
2023-05-01T20:02:17.814Z,53.43
2023-05-01T20:04:44.344Z,54.18
2023-05-01T20:07:10.867Z,54.31
2023-05-01T20:09:37.247Z,54.70
2023-05-01T20:12:03.652Z,55.38
2023-05-01T20:14:31.718Z,52.91
2023-05-01T20:17:00.158Z,51.22
2023-05-01T20:19:27.050Z,50.32
2023-05-01T20:21:53.488Z,50.11
2023-05-01T20:24:19.860Z,50.62
2023-05-01T20:26:46.267Z,51.83
2023-05-01T20:29:12.724Z,51.84
2023-05-01T20:31:39.308Z,51.96
2023-05-01T20:34:05.916Z,52.51
2023-05-01T20:36:32.820Z,53.79
2023-05-01T20:38:59.263Z,54.25
2023-05-01T20:41:25.663Z,53.65
2023-05-01T20:43:52.075Z,54.00
2023-05-01T20:46:18.522Z,54.49
2023-05-01T20:48:45.095Z,54.90
2023-05-01T20:51:11.545Z,56.43
2023-05-01T20:53:37.968Z,56.41
2023-05-01T20:56:04.400Z,55.56
2023-05-01T20:58:30.906Z,55.20
2023-05-01T21:00:57.309Z,54.97
2023-05-01T21:03:23.817Z,56.60
2023-05-01T21:05:50.332Z,57.09
2023-05-01T21:08:16.760Z,57.05
2023-05-01T21:10:43.203Z,57.09
2023-05-01T21:13:09.608Z,58.21
2023-05-01T21:15:36.173Z,59.55
2023-05-01T21:18:02.660Z,59.31
2023-05-01T21:20:29.078Z,59.30
2023-05-01T21:22:55.528Z,58.21
2023-05-01T21:25:21.982Z,57.83
2023-05-01T21:27:48.428Z,58.24
2023-05-01T21:30:14.830Z,57.69
2023-05-01T21:32:41.225Z,56.78
2023-05-01T21:35:07.641Z,57.11
2023-05-01T21:37:34.037Z,56.96
2023-05-01T21:40:00.737Z,55.54
2023-05-01T21:42:27.457Z,56.38
2023-05-01T21:44:53.873Z,56.43
2023-05-01T21:47:20.517Z,55.90
2023-05-01T21:49:47.071Z,54.89
2023-05-01T21:52:13.517Z,55.33
2023-05-01T21:54:39.962Z,55.52
2023-05-01T21:57:06.383Z,55.94
2023-05-01T21:59:32.806Z,54.96
2023-05-01T22:01:59.217Z,54.55
2023-05-01T22:04:25.604Z,54.00
2023-05-01T22:06:52.105Z,53.96
2023-05-01T22:09:18.586Z,54.01
2023-05-01T22:11:45.003Z,54.18
2023-05-01T22:14:11.543Z,55.11
2023-05-01T22:16:38.017Z,54.84
2023-05-01T22:19:04.489Z,54.90
2023-05-01T22:21:30.878Z,54.65
2023-05-01T22:23:57.315Z,54.55
2023-05-01T22:26:23.750Z,54.92
2023-05-01T22:28:50.180Z,55.35
2023-05-01T22:31:16.647Z,55.46
2023-05-01T22:33:43.049Z,55.97
2023-05-01T22:36:09.433Z,54.95
2023-05-01T22:38:35.891Z,54.63
2023-05-01T22:41:02.399Z,53.94
2023-05-01T22:43:28.930Z,54.03
2023-05-01T22:45:55.353Z,54.21
2023-05-01T22:48:21.758Z,55.15
2023-05-01T22:50:48.255Z,54.47
2023-05-01T22:53:14.643Z,54.34
2023-05-01T22:55:41.024Z,53.87
2023-05-01T22:58:07.454Z,54.68
2023-05-01T23:00:33.846Z,54.32
2023-05-01T23:03:00.357Z,54.71
2023-05-01T23:05:26.891Z,54.55
2023-05-01T23:07:53.324Z,55.18
2023-05-01T23:10:19.779Z,55.16
2023-05-01T23:12:46.182Z,54.85
2023-05-01T23:15:12.629Z,54.89
2023-05-01T23:17:39.141Z,55.07
2023-05-01T23:20:05.584Z,55.45
2023-05-01T23:22:31.978Z,54.79
2023-05-01T23:24:58.420Z,55.61
2023-05-01T23:27:24.854Z,55.41
2023-05-01T23:29:51.375Z,55.02
2023-05-01T23:32:17.784Z,55.27
2023-05-01T23:34:44.187Z,55.92
2023-05-01T23:37:10.580Z,56.69
2023-05-01T23:39:36.974Z,55.67
2023-05-01T23:42:03.365Z,55.49
2023-05-01T23:44:29.740Z,55.32
2023-05-01T23:46:56.163Z,55.69
2023-05-01T23:49:22.574Z,54.83
2023-05-01T23:51:48.984Z,55.83
2023-05-01T23:54:15.364Z,55.65
2023-05-01T23:56:41.809Z,56.50
2023-05-01T23:59:08.253Z,56.37
